createdAt,value
2022-07-30T00:01:34.219Z,99886.88
2022-07-30T00:04:24.507Z,99885.59
2022-07-30T00:07:13.376Z,99887.72
2022-07-30T00:10:03.322Z,99882.31
2022-07-30T00:12:52.148Z,99882.78
2022-07-30T00:15:40.638Z,99890.19
2022-07-30T00:18:29.135Z,99891.59
2022-07-30T00:21:20.254Z,99889.00
2022-07-30T00:24:25.022Z,99889.31
2022-07-30T00:27:15.092Z,99881.03
2022-07-30T00:30:03.759Z,99884.97
2022-07-30T00:32:52.288Z,99888.06
2022-07-30T00:35:40.779Z,99872.13
2022-07-30T00:38:29.414Z,99875.09
2022-07-30T00:41:17.978Z,99872.84
2022-07-30T00:44:07.924Z,99873.31
2022-07-30T00:46:56.492Z,99880.69
2022-07-30T00:49:45.010Z,99864.56
2022-07-30T00:52:33.503Z,99866.81
2022-07-30T00:55:22.458Z,99862.88
2022-07-30T00:58:10.916Z,99863.38
2022-07-30T01:01:01.086Z,99863.91
2022-07-30T01:03:50.187Z,99863.53
2022-07-30T01:06:39.440Z,99859.75
2022-07-30T01:09:27.956Z,99856.66
2022-07-30T01:12:18.036Z,99854.97
2022-07-30T01:15:08.387Z,99856.28
2022-07-30T01:18:01.042Z,99849.03
2022-07-30T01:20:53.311Z,99856.38
2022-07-30T01:23:45.216Z,99848.91
2022-07-30T01:26:35.140Z,99856.25
2022-07-30T01:29:23.966Z,99854.81
2022-07-30T01:32:12.919Z,99854.28
2022-07-30T01:35:01.683Z,99853.81
2022-07-30T01:37:50.253Z,99857.75
2022-07-30T01:40:38.969Z,99861.38
2022-07-30T01:43:28.876Z,99869.56
2022-07-30T01:46:17.834Z,99870.03
2022-07-30T01:49:09.344Z,99873.03
2022-07-30T01:51:57.971Z,99871.69
2022-07-30T01:54:47.949Z,99876.44
2022-07-30T01:57:36.867Z,99882.81
2022-07-30T02:00:26.740Z,99890.03
2022-07-30T02:03:15.447Z,99890.56
2022-07-30T02:06:08.899Z,99887.38
2022-07-30T02:09:00.445Z,99890.19
2022-07-30T02:12:09.419Z,99897.28
2022-07-30T02:15:05.286Z,99894.69
2022-07-30T02:18:00.663Z,99897.53
2022-07-30T02:21:00.039Z,99898.69
2022-07-30T02:23:51.157Z,99905.13
2022-07-30T02:26:42.073Z,99906.19
2022-07-30T02:29:31.279Z,99901.84
2022-07-30T02:32:22.020Z,99899.22
2022-07-30T02:35:16.371Z,99902.03
2022-07-30T02:38:05.569Z,99907.16
2022-07-30T02:40:54.521Z,99912.38
2022-07-30T02:43:43.094Z,99906.19
2022-07-30T02:46:32.278Z,99913.09
2022-07-30T02:49:41.021Z,99918.31
2022-07-30T02:52:31.387Z,99918.41
2022-07-30T02:55:19.943Z,99925.31
2022-07-30T02:58:08.558Z,99921.13
2022-07-30T03:00:57.376Z,99921.56
2022-07-30T03:03:46.085Z,99933.88
2022-07-30T03:06:34.686Z,99933.88
2022-07-30T03:09:24.848Z,99935.03
2022-07-30T03:12:13.995Z,99932.66
2022-07-30T03:15:02.543Z,99943.25
2022-07-30T03:17:53.938Z,99936.19
2022-07-30T03:20:46.247Z,99939.28
2022-07-30T03:23:38.301Z,99940.66
2022-07-30T03:26:28.180Z,99943.69
2022-07-30T03:29:16.932Z,99944.72
2022-07-30T03:32:10.513Z,99946.50
2022-07-30T03:35:06.314Z,99943.03
2022-07-30T03:37:57.311Z,99947.75
2022-07-30T03:40:46.586Z,99956.59
2022-07-30T03:43:36.914Z,99949.94
2022-07-30T03:46:26.467Z,99945.84
2022-07-30T03:49:15.173Z,99952.19
2022-07-30T03:52:08.242Z,99954.28
2022-07-30T03:54:56.999Z,99954.38
2022-07-30T03:58:04.478Z,99953.56
2022-07-30T04:00:55.552Z,99948.56
2022-07-30T04:03:44.097Z,99959.06
2022-07-30T04:06:33.467Z,99958.25
2022-07-30T04:09:23.575Z,99961.75
2022-07-30T04:12:13.862Z,99968.03
2022-07-30T04:15:02.569Z,99962.19
2022-07-30T04:18:12.404Z,99965.72
2022-07-30T04:21:00.955Z,99974.25
2022-07-30T04:24:04.793Z,99970.94
2022-07-30T04:26:55.399Z,99974.47
2022-07-30T04:29:43.892Z,99978.66
2022-07-30T04:32:33.026Z,99976.88
2022-07-30T04:35:50.971Z,99983.03
2022-07-30T04:38:53.978Z,99981.47
2022-07-30T04:41:49.474Z,99983.34
2022-07-30T04:44:57.008Z,99993.00
2022-07-30T04:47:48.406Z,99995.50
2022-07-30T04:50:51.729Z,100005.16
2022-07-30T04:53:41.167Z,100012.81
2022-07-30T04:56:31.899Z,100009.25
2022-07-30T04:59:20.483Z,100015.84
2022-07-30T05:02:09.108Z,100020.53
2022-07-30T05:04:58.339Z,100020.97
2022-07-30T05:07:49.972Z,100018.06
2022-07-30T05:10:39.063Z,100016.31
2022-07-30T05:13:38.029Z,100022.44
2022-07-30T05:16:29.690Z,100023.28
2022-07-30T05:19:20.718Z,100014.41
2022-07-30T05:22:09.734Z,100027.28
2022-07-30T05:24:59.801Z,100026.69
2022-07-30T05:27:48.343Z,100027.38
2022-07-30T05:30:38.295Z,100021.56
2022-07-30T05:33:40.929Z,100023.19
2022-07-30T05:36:33.584Z,100033.75
2022-07-30T05:39:22.663Z,100032.19
2022-07-30T05:42:15.098Z,100031.13
2022-07-30T05:45:13.072Z,100022.38
2022-07-30T05:48:03.072Z,100023.63
2022-07-30T05:50:51.895Z,100019.59
2022-07-30T05:53:41.025Z,100020.50
2022-07-30T05:56:32.331Z,100017.81
2022-07-30T05:59:36.552Z,100012.16
2022-07-30T06:02:31.954Z,100017.94
2022-07-30T06:05:49.374Z,100020.00
2022-07-30T06:08:37.975Z,100018.50
2022-07-30T06:11:26.850Z,100013.59
2022-07-30T06:14:15.312Z,100008.94
2022-07-30T06:17:05.575Z,100015.69
2022-07-30T06:20:21.454Z,100019.03
2022-07-30T06:23:33.169Z,100020.47
2022-07-30T06:26:44.266Z,100021.44
2022-07-30T06:29:33.404Z,100025.72
2022-07-30T06:32:24.176Z,100024.63
2022-07-30T06:35:12.743Z,100026.03
2022-07-30T06:38:07.732Z,100027.19
2022-07-30T06:41:08.689Z,100024.72
2022-07-30T06:44:19.372Z,100026.28
2022-07-30T06:47:29.531Z,100025.31
2022-07-30T06:50:20.292Z,100031.00
2022-07-30T06:53:08.938Z,100033.34
2022-07-30T06:56:16.451Z,100036.34
2022-07-30T06:59:16.041Z,100044.59
2022-07-30T07:02:26.848Z,100043.09
2022-07-30T07:05:30.528Z,100044.75
2022-07-30T07:08:19.927Z,100047.22
2022-07-30T07:11:15.551Z,100050.25
2022-07-30T07:14:12.200Z,100044.94
2022-07-30T07:17:01.341Z,100050.75
2022-07-30T07:20:29.967Z,100048.56
2022-07-30T07:23:24.705Z,100053.81
2022-07-30T07:26:15.918Z,100044.56
2022-07-30T07:29:05.381Z,100059.38
2022-07-30T07:32:06.805Z,100053.66
2022-07-30T07:34:58.872Z,100051.63
2022-07-30T07:37:49.430Z,100051.53
2022-07-30T07:40:43.332Z,100061.53
2022-07-30T07:43:31.870Z,100054.50
2022-07-30T07:46:33.650Z,100054.44
2022-07-30T07:49:24.445Z,100060.13
2022-07-30T07:52:13.898Z,100061.78
2022-07-30T07:55:03.746Z,100057.16
2022-07-30T07:57:54.744Z,100067.94
2022-07-30T08:00:43.358Z,100060.81
2022-07-30T08:03:31.929Z,100067.47
2022-07-30T08:06:23.190Z,100059.00
2022-07-30T08:09:43.670Z,100062.63
2022-07-30T08:12:57.869Z,100066.13
2022-07-30T08:16:05.325Z,100065.78
2022-07-30T08:19:32.239Z,100070.41
2022-07-30T08:22:37.500Z,100063.97
2022-07-30T08:25:26.027Z,100068.44
2022-07-30T08:28:35.293Z,100059.94
2022-07-30T08:31:25.273Z,100053.69
2022-07-30T08:34:14.382Z,100057.03
2022-07-30T08:37:03.077Z,100054.69
2022-07-30T08:39:51.640Z,100052.75
2022-07-30T08:42:43.252Z,100055.72
2022-07-30T08:45:34.964Z,100048.13
2022-07-30T08:49:00.622Z,100058.53
2022-07-30T08:51:58.123Z,100054.53
2022-07-30T08:55:15.769Z,100046.34
2022-07-30T08:58:04.866Z,100048.72
2022-07-30T09:03:50.506Z,100036.66
2022-07-30T09:06:40.860Z,100040.34
2022-07-30T09:09:29.648Z,100039.66
2022-07-30T09:12:37.663Z,100041.47
2022-07-30T09:15:28.395Z,100046.44
2022-07-30T09:18:27.866Z,100037.88
2022-07-30T09:21:18.940Z,100045.41
2022-07-30T09:24:12.399Z,100042.22
2022-07-30T09:27:45.645Z,100042.47
2022-07-30T09:30:54.550Z,100041.94
2022-07-30T09:34:27.536Z,100043.19
2022-07-30T09:37:21.920Z,100041.78
2022-07-30T09:40:39.461Z,100031.88
2022-07-30T09:43:53.764Z,100034.81
2022-07-30T09:46:53.443Z,100043.97
2022-07-30T09:49:49.065Z,100043.84
2022-07-30T09:52:43.968Z,100047.44
2022-07-30T09:55:41.417Z,100039.31
2022-07-30T09:58:50.055Z,100046.28
2022-07-30T10:01:55.054Z,100031.34
2022-07-30T10:05:14.080Z,100039.53
2022-07-30T10:08:09.248Z,100034.97
2022-07-30T10:11:08.540Z,100034.38
2022-07-30T10:14:00.219Z,100026.38
2022-07-30T10:16:48.877Z,100026.06
2022-07-30T10:19:39.885Z,100028.31
2022-07-30T10:23:10.080Z,100029.38
2022-07-30T10:26:23.038Z,100018.19
2022-07-30T10:29:33.672Z,100010.97
2022-07-30T10:32:30.465Z,99999.81
2022-07-30T10:35:34.403Z,100011.16
2022-07-30T10:38:32.384Z,100016.19
2022-07-30T10:41:42.904Z,100009.84
2022-07-30T10:45:17.345Z,99999.13
2022-07-30T10:48:06.506Z,100001.72
2022-07-30T10:50:56.940Z,99994.00
2022-07-30T10:53:47.980Z,99992.84
2022-07-30T10:56:37.051Z,99992.34
2022-07-30T10:59:28.943Z,99991.47
2022-07-30T11:02:18.003Z,99983.56
2022-07-30T11:05:43.753Z,99985.22
2022-07-30T11:08:42.680Z,99978.78
2022-07-30T11:12:02.140Z,99978.97
2022-07-30T11:15:07.205Z,99986.59
2022-07-30T11:18:12.973Z,99977.50
2022-07-30T11:21:22.581Z,99976.94
2022-07-30T11:24:43.338Z,99978.53
2022-07-30T11:27:45.670Z,99974.47
2022-07-30T11:30:36.056Z,99976.63
2022-07-30T11:33:32.177Z,99990.22
2022-07-30T11:36:21.739Z,99980.44
2022-07-30T11:39:12.883Z,99967.88
2022-07-30T11:42:34.280Z,99968.16
2022-07-30T11:45:30.546Z,99969.53
2022-07-30T11:48:20.872Z,99967.34
2022-07-30T11:51:09.718Z,99974.59
2022-07-30T11:54:03.210Z,99979.06
2022-07-30T11:56:52.792Z,99970.16
2022-07-30T11:59:54.700Z,99966.13
2022-07-30T12:02:45.258Z,99961.75
2022-07-30T12:05:33.796Z,99968.00
2022-07-30T12:08:33.397Z,99959.63
2022-07-30T12:11:25.015Z,99953.63
2022-07-30T12:14:14.052Z,99954.19
2022-07-30T12:17:02.746Z,99952.16
2022-07-30T12:19:52.806Z,99961.16
2022-07-30T12:22:41.294Z,99951.25
2022-07-30T12:25:30.192Z,99950.31
2022-07-30T12:28:22.546Z,99944.22
2022-07-30T12:31:11.104Z,99954.72
2022-07-30T12:34:00.649Z,99953.63
2022-07-30T12:36:50.573Z,99946.84
2022-07-30T12:39:40.556Z,99943.53
2022-07-30T12:42:29.304Z,99944.41
2022-07-30T12:45:28.381Z,99930.91
2022-07-30T12:48:16.843Z,99920.59
2022-07-30T12:51:07.239Z,99926.06
2022-07-30T12:53:57.681Z,99926.06
2022-07-30T12:56:59.320Z,99916.63
2022-07-30T12:59:48.254Z,99908.16
2022-07-30T13:02:37.389Z,99904.06
2022-07-30T13:05:48.695Z,99905.34
2022-07-30T13:08:51.861Z,99898.63
2022-07-30T13:11:48.968Z,99903.25
2022-07-30T13:14:37.931Z,99895.91
2022-07-30T13:17:26.416Z,99894.56
2022-07-30T13:20:15.456Z,99903.44
2022-07-30T13:23:03.988Z,99911.72
2022-07-30T13:25:52.628Z,99905.00
2022-07-30T13:28:42.506Z,99902.41
2022-07-30T13:31:42.759Z,99905.66
2022-07-30T13:34:31.979Z,99908.06
2022-07-30T13:37:20.444Z,99902.50
2022-07-30T13:40:12.543Z,99894.56
2022-07-30T13:43:01.037Z,99889.84
2022-07-30T13:45:51.301Z,99888.47
2022-07-30T13:48:40.171Z,99891.31
2022-07-30T13:51:28.665Z,99890.13
2022-07-30T13:54:17.123Z,99885.94
2022-07-30T13:57:06.125Z,99882.06
2022-07-30T13:59:54.603Z,99881.50
2022-07-30T14:02:44.514Z,99886.06
2022-07-30T14:05:33.211Z,99878.84
2022-07-30T14:08:21.965Z,99874.09
2022-07-30T14:11:10.488Z,99876.28
2022-07-30T14:13:58.961Z,99867.72
2022-07-30T14:16:50.667Z,99864.03
2022-07-30T14:19:43.511Z,99872.28
2022-07-30T14:22:32.016Z,99875.22
2022-07-30T14:25:20.512Z,99868.28
2022-07-30T14:28:09.064Z,99856.94
2022-07-30T14:30:57.560Z,99865.00
2022-07-30T14:33:46.075Z,99875.53
2022-07-30T14:36:37.289Z,99862.00
2022-07-30T14:39:25.990Z,99863.69
2022-07-30T14:42:14.467Z,99859.13
2022-07-30T14:45:03.841Z,99848.53
2022-07-30T14:47:52.367Z,99858.75
2022-07-30T14:51:03.356Z,99851.38
2022-07-30T14:53:51.513Z,99855.91
2022-07-30T14:56:40.238Z,99858.16
2022-07-30T14:59:28.737Z,99851.78
2022-07-30T15:02:17.221Z,99860.41
2022-07-30T15:05:07.020Z,99866.34
2022-07-30T15:07:55.513Z,99864.03
2022-07-30T15:10:45.351Z,99864.88
2022-07-30T15:13:33.837Z,99861.63
2022-07-30T15:16:24.237Z,99859.38
2022-07-30T15:19:13.649Z,99855.88
2022-07-30T15:22:03.336Z,99856.59
2022-07-30T15:24:52.029Z,99853.31
2022-07-30T15:27:41.802Z,99865.97
2022-07-30T15:30:30.270Z,99869.22
2022-07-30T15:33:18.984Z,99860.91
2022-07-30T15:36:07.638Z,99860.91
2022-07-30T15:38:56.086Z,99866.41
2022-07-30T15:41:44.894Z,99860.81
2022-07-30T15:44:34.857Z,99861.22
2022-07-30T15:47:24.026Z,99861.69
2022-07-30T15:50:12.596Z,99849.41
2022-07-30T15:53:01.150Z,99847.78
2022-07-30T15:55:50.966Z,99854.53
2022-07-30T15:58:43.383Z,99865.38
2022-07-30T16:01:34.288Z,99870.31
2022-07-30T16:04:31.749Z,99869.22
2022-07-30T16:07:20.568Z,99863.25
2022-07-30T16:10:10.080Z,99865.44
2022-07-30T16:12:58.641Z,99864.25
2022-07-30T16:15:47.086Z,99864.25
2022-07-30T16:18:36.881Z,99866.84
2022-07-30T16:21:25.311Z,99865.44
2022-07-30T16:24:13.754Z,99863.25
2022-07-30T16:27:02.237Z,99861.28
2022-07-30T16:29:50.749Z,99861.63
2022-07-30T16:32:39.218Z,99860.72
2022-07-30T16:35:29.041Z,99851.22
2022-07-30T16:38:17.582Z,99866.97
2022-07-30T16:41:07.647Z,99866.53
2022-07-30T16:43:58.867Z,99875.63
2022-07-30T16:46:48.384Z,99866.63
2022-07-30T16:49:38.677Z,99863.44
2022-07-30T16:52:28.493Z,99866.47
2022-07-30T16:55:16.935Z,99863.72
2022-07-30T16:58:05.397Z,99866.88
2022-07-30T17:00:53.985Z,99865.25
2022-07-30T17:03:42.538Z,99864.03
2022-07-30T17:06:31.005Z,99864.69
2022-07-30T17:09:20.846Z,99869.34
2022-07-30T17:12:12.450Z,99869.94
2022-07-30T17:15:01.023Z,99870.38
2022-07-30T17:17:49.510Z,99866.81
2022-07-30T17:20:39.234Z,99871.50
2022-07-30T17:23:27.677Z,99877.91
2022-07-30T17:26:17.528Z,99875.63
2022-07-30T17:29:08.659Z,99870.75
2022-07-30T17:31:59.415Z,99875.09
2022-07-30T17:34:48.111Z,99886.88
2022-07-30T17:37:36.964Z,99884.78
2022-07-30T17:40:28.884Z,99879.41
2022-07-30T17:43:21.163Z,99890.97
2022-07-30T17:46:09.554Z,99895.84
2022-07-30T17:48:58.138Z,99898.88
2022-07-30T17:51:48.400Z,99888.78
2022-07-30T17:54:36.945Z,99897.31
2022-07-30T17:57:25.397Z,99893.75
2022-07-30T18:00:16.166Z,99898.97
2022-07-30T18:03:04.766Z,99906.91
2022-07-30T18:05:53.805Z,99912.38
2022-07-30T18:08:42.273Z,99912.06
2022-07-30T18:11:30.685Z,99909.44
2022-07-30T18:14:19.263Z,99913.31
2022-07-30T18:17:14.084Z,99916.75
2022-07-30T18:20:02.959Z,99924.81
2022-07-30T18:22:51.853Z,99926.13
2022-07-30T18:25:52.952Z,99922.22
2022-07-30T18:28:43.344Z,99925.94
2022-07-30T18:31:31.829Z,99940.03
2022-07-30T18:34:21.681Z,99941.84
2022-07-30T18:37:10.172Z,99940.31
2022-07-30T18:39:58.659Z,99944.59
2022-07-30T18:42:49.639Z,99940.16
2022-07-30T18:45:38.088Z,99949.00
2022-07-30T18:48:27.651Z,99958.59
2022-07-30T18:51:18.641Z,99954.97
2022-07-30T18:54:07.309Z,99957.13
2022-07-30T18:56:55.846Z,99948.88
2022-07-30T18:59:44.367Z,99958.59
2022-07-30T19:02:32.970Z,99953.47
2022-07-30T19:05:21.920Z,99959.72
2022-07-30T19:08:11.739Z,99965.06
2022-07-30T19:11:01.009Z,99972.81
2022-07-30T19:13:49.507Z,99974.69
2022-07-30T19:16:38.085Z,99975.59
2022-07-30T19:19:26.601Z,99975.88
2022-07-30T19:22:15.636Z,99981.47
2022-07-30T19:25:06.600Z,99991.03
2022-07-30T19:27:55.062Z,99997.00
2022-07-30T19:30:43.514Z,99995.91
2022-07-30T19:33:32.028Z,100003.66
2022-07-30T19:36:21.018Z,100002.84
2022-07-30T19:39:15.982Z,100012.53
2022-07-30T19:42:11.730Z,100010.69
2022-07-30T19:45:01.387Z,100011.66
2022-07-30T19:47:52.984Z,100017.72
2022-07-30T19:50:43.846Z,100013.16
2022-07-30T19:53:34.634Z,100027.13
2022-07-30T19:56:23.556Z,100033.88
2022-07-30T19:59:15.148Z,100047.00
2022-07-30T20:02:04.010Z,100049.44
2022-07-30T20:04:52.684Z,100045.69
2022-07-30T20:07:41.210Z,100050.38
2022-07-30T20:10:33.543Z,100055.16
2022-07-30T20:13:22.061Z,100055.44
2022-07-30T20:16:12.371Z,100057.63
2022-07-30T20:19:03.133Z,100064.22
2022-07-30T20:21:56.625Z,100057.84
2022-07-30T20:24:47.888Z,100054.91
2022-07-30T20:27:38.718Z,100064.28
2022-07-30T20:30:27.547Z,100065.72
2022-07-30T20:33:17.830Z,100063.50
2022-07-30T20:36:24.418Z,100071.75
2022-07-30T20:39:13.384Z,100059.88
2022-07-30T20:42:11.904Z,100060.94
2022-07-30T20:45:00.869Z,100060.38
2022-07-30T20:47:52.228Z,100055.38
2022-07-30T20:50:43.683Z,100040.97
2022-07-30T20:53:36.092Z,100054.91
2022-07-30T20:56:25.516Z,100052.41
2022-07-30T20:59:14.016Z,100058.63
2022-07-30T21:02:03.757Z,100060.25
2022-07-30T21:04:56.681Z,100067.09
2022-07-30T21:10:57.903Z,100062.31
2022-07-30T21:13:48.778Z,100062.03
2022-07-30T21:16:38.251Z,100062.84
2022-07-30T21:19:29.121Z,100063.00
2022-07-30T21:22:18.656Z,100070.06
2022-07-30T21:25:12.050Z,100068.09
2022-07-30T21:28:00.530Z,100071.59
2022-07-30T21:30:51.482Z,100069.91
2022-07-30T21:33:40.135Z,100071.97
2022-07-30T21:36:28.742Z,100067.91
2022-07-30T21:39:17.607Z,100059.72
2022-07-30T21:42:07.824Z,100061.84
2022-07-30T21:44:56.275Z,100064.03
2022-07-30T21:47:47.656Z,100060.00
2022-07-30T21:50:37.958Z,100067.31
2022-07-30T21:53:44.529Z,100070.53
2022-07-30T21:56:33.885Z,100064.16
2022-07-30T21:59:23.725Z,100080.13
2022-07-30T22:02:15.870Z,100070.47
2022-07-30T22:05:08.111Z,100083.69
2022-07-30T22:07:57.189Z,100086.59
2022-07-30T22:10:47.104Z,100083.97
2022-07-30T22:13:51.246Z,100080.03
2022-07-30T22:16:46.048Z,100090.19
2022-07-30T22:19:35.023Z,100094.03
2022-07-30T22:22:27.499Z,100089.84
2022-07-30T22:25:16.891Z,100096.66
2022-07-30T22:28:05.870Z,100099.84
2022-07-30T22:30:56.323Z,100095.34
2022-07-30T22:33:46.177Z,100106.31
2022-07-30T22:36:38.316Z,100101.31
2022-07-30T22:39:31.934Z,100103.22
2022-07-30T22:42:36.564Z,100101.53
2022-07-30T22:45:49.154Z,100093.94
2022-07-30T22:48:38.451Z,100093.84
2022-07-30T22:52:02.859Z,100094.41
2022-07-30T22:54:36.797Z,100092.13
2022-07-30T22:57:25.270Z,100093.56
2022-07-30T23:00:27.212Z,100091.75
2022-07-30T23:03:17.028Z,100088.56
2022-07-30T23:06:05.506Z,100093.81
2022-07-30T23:08:56.441Z,100085.69
2022-07-30T23:11:45.313Z,100090.72
2022-07-30T23:12:31.356Z,100061.59
2022-07-30T23:14:33.752Z,100092.09
2022-07-30T23:17:22.217Z,100086.38
2022-07-30T23:20:13.668Z,100079.28
2022-07-30T23:23:02.981Z,100075.47
2022-07-30T23:25:52.771Z,100076.72
2022-07-30T23:28:41.515Z,100076.38
2022-07-30T23:31:29.985Z,100078.63
2022-07-30T23:34:18.551Z,100076.69
2022-07-30T23:37:09.683Z,100072.31
2022-07-30T23:40:01.441Z,100073.25
2022-07-30T23:42:51.845Z,100076.84
2022-07-30T23:45:40.426Z,100078.50
2022-07-30T23:48:29.143Z,100082.66
2022-07-30T23:51:17.711Z,100084.34
2022-07-30T23:54:06.332Z,100075.88
2022-07-30T23:56:56.184Z,100068.38
2022-07-30T23:59:46.059Z,100076.38
